Terminal Aerodrome Forecast
Issued by NWS Sioux Falls, SD

Home | Current Version | Previous Version | Graphics & Text | Print | Product List | Glossary Off
Versions: 1 2 3 4 5 6 7 8 9 10 11 12 13 14 15 16 17 18 19 20 21 22 23 24

000
FTUS43 KFSD 011739
TAFHON
TAF
KHON 011739Z 0118/0218 12008KT P6SM SCT025
     FM020600 15007KT P6SM OVC050
     FM020900 14005KT 5SM -SHRA BR OVC025
     FM021200 10007KT P6SM BKN025
     FM021500 12005KT P6SM BKN025=

USA.gov is the U.S. government's official web portal to all federal, state and local government web resources and services.